Time;durP1;ratioP1;P1;durP2;ratioP2;P2;SDS_P1;SDS_P2;PMS_P1;PMS_P2;Temp;Humidity;BMP_temperature;BMP_pressure;BME280_temperature;BME280_humidity;BME280_pressure;Samples;Min_cycle;Max_cycle;Signal;HPM_P1;HPM_P2
2022/08/26 00:02:19;;;;;;;54.45;46.88;;;21.30;99.90;;;;;;5031216;28;20434;-64
2022/08/26 00:04:45;;;;;;;54.15;44.92;;;21.20;99.90;;;;;;5048522;28;20033;-64
2022/08/26 00:07:11;;;;;;;53.00;47.13;;;21.20;99.90;;;;;;5048758;28;20457;-64
2022/08/26 00:09:36;;;;;;;51.85;46.10;;;21.10;99.90;;;;;;5047137;28;20112;-64
2022/08/26 00:12:03;;;;;;;55.83;46.40;;;21.10;99.90;;;;;;5048105;28;20037;-64
2022/08/26 00:14:29;;;;;;;52.45;45.92;;;21.20;99.90;;;;;;5048821;28;20048;-64
2022/08/26 00:16:55;;;;;;;55.58;47.55;;;21.10;99.90;;;;;;5051749;28;20113;-64
2022/08/26 00:19:21;;;;;;;53.38;47.58;;;21.10;99.90;;;;;;5051261;28;20483;-64
2022/08/26 00:21:47;;;;;;;58.10;48.15;;;21.10;99.90;;;;;;5048289;28;20033;-64
2022/08/26 00:24:13;;;;;;;57.72;48.15;;;21.00;99.90;;;;;;5042032;28;20484;-64
2022/08/26 00:26:39;;;;;;;57.05;48.10;;;21.00;99.90;;;;;;5047765;28;20051;-64
2022/08/26 00:29:05;;;;;;;57.22;46.58;;;21.00;99.90;;;;;;5047972;28;20120;-64
2022/08/26 00:31:31;;;;;;;59.80;50.90;;;20.90;99.90;;;;;;5048172;28;20148;-64
2022/08/26 00:33:57;;;;;;;57.28;50.17;;;20.90;99.90;;;;;;5045685;28;20040;-64
2022/08/26 00:36:24;;;;;;;57.33;50.70;;;20.80;99.90;;;;;;5048053;28;20037;-64
2022/08/26 00:38:49;;;;;;;59.45;50.50;;;20.80;99.90;;;;;;5049183;28;20033;-64
2022/08/26 00:41:18;;;;;;;57.03;49.85;;;20.80;99.90;;;;;;5050430;28;20410;-64
2022/08/26 00:43:45;;;;;;;59.72;50.10;;;20.70;99.90;;;;;;5053983;28;20051;-64
2022/08/26 00:46:24;;;;;;;63.15;51.72;;;20.70;99.90;;;;;;5052184;28;20064;-64
2022/08/26 00:48:56;;;;;;;62.97;52.17;;;20.70;99.90;;;;;;5052417;28;20056;-64
2022/08/26 00:51:24;;;;;;;63.95;51.72;;;20.70;99.90;;;;;;5049563;28;20039;-64
2022/08/26 00:53:58;;;;;;;59.22;52.20;;;20.60;99.90;;;;;;5052361;28;20044;-64
2022/08/26 00:56:35;;;;;;;66.25;53.10;;;20.60;99.90;;;;;;5032043;28;20042;-64
2022/08/26 00:59:05;;;;;;;67.97;53.53;;;20.50;99.90;;;;;;5043857;28;20037;-64
2022/08/26 01:01:31;;;;;;;65.07;55.37;;;20.50;99.90;;;;;;5051610;28;20529;-65
2022/08/26 01:03:58;;;;;;;65.93;54.17;;;20.50;99.90;;;;;;5051888;28;20286;-64
2022/08/26 01:06:25;;;;;;;69.85;54.20;;;20.50;99.90;;;;;;5050454;28;20399;-64
2022/08/26 01:08:51;;;;;;;65.88;54.45;;;20.50;99.90;;;;;;5058216;28;20033;-64
2022/08/26 01:11:17;;;;;;;66.97;54.70;;;20.40;99.90;;;;;;5051271;28;20028;-65
2022/08/26 01:13:43;;;;;;;64.57;54.08;;;20.40;99.90;;;;;;5051927;28;20040;-64
2022/08/26 01:16:13;;;;;;;63.95;53.92;;;20.40;99.90;;;;;;5059008;28;20029;-64
2022/08/26 01:18:41;;;;;;;65.78;56.47;;;20.40;99.90;;;;;;5036529;28;20071;-64
2022/08/26 01:21:07;;;;;;;67.35;55.17;;;20.30;99.90;;;;;;5051392;28;20041;-64
2022/08/26 01:23:37;;;;;;;67.60;54.53;;;20.30;99.90;;;;;;5044155;28;20131;-64
2022/08/26 01:26:08;;;;;;;70.03;55.65;;;20.20;99.90;;;;;;5057412;28;20094;-64
2022/08/26 01:28:35;;;;;;;71.22;53.80;;;20.20;99.90;;;;;;5051351;28;20056;-64
2022/08/26 01:31:04;;;;;;;76.90;54.92;;;20.20;99.90;;;;;;5048254;28;20044;-65
2022/08/26 01:33:37;;;;;;;71.72;53.83;;;20.10;99.90;;;;;;5049835;28;20080;-63
2022/08/26 01:36:04;;;;;;;71.55;52.33;;;20.20;99.90;;;;;;5050957;28;20041;-63
2022/08/26 01:38:29;;;;;;;66.30;50.65;;;20.10;99.90;;;;;;5051625;28;20617;-63
2022/08/26 01:40:55;;;;;;;66.47;49.90;;;20.10;99.90;;;;;;5046193;28;20503;-63
2022/08/26 01:43:23;;;;;;;68.00;49.78;;;20.20;99.90;;;;;;5051075;28;20043;-63
2022/08/26 01:45:53;;;;;;;69.68;48.80;;;20.20;99.90;;;;;;5051363;28;20040;-63
2022/08/26 01:48:23;;;;;;;63.35;47.28;;;20.20;99.90;;;;;;5049368;28;20052;-63
2022/08/26 01:50:50;;;;;;;66.57;45.47;;;20.20;99.90;;;;;;5050134;28;20041;-63
2022/08/26 01:53:18;;;;;;;66.22;46.78;;;20.20;99.90;;;;;;5050693;28;20044;-63
2022/08/26 01:55:47;;;;;;;63.13;44.58;;;20.30;99.90;;;;;;5050838;28;20037;-63
2022/08/26 01:58:20;;;;;;;66.70;45.88;;;20.30;99.90;;;;;;5045340;28;20036;-63
2022/08/26 02:00:46;;;;;;;66.40;44.75;;;20.30;99.90;;;;;;5045886;28;20391;-63
2022/08/26 02:03:20;;;;;;;60.53;44.15;;;20.30;99.90;;;;;;5050453;28;20820;-63
2022/08/26 02:06:02;;;;;;;62.70;42.03;;;20.30;99.90;;;;;;5050121;28;20037;-63
2022/08/26 02:08:40;;;;;;;60.38;41.67;;;20.40;99.90;;;;;;5049497;28;20041;-63
2022/08/26 02:11:06;;;;;;;65.28;43.70;;;20.40;99.90;;;;;;5050481;28;20037;-63
2022/08/26 02:13:38;;;;;;;61.53;40.15;;;20.40;99.90;;;;;;5047906;28;20112;-63
2022/08/26 02:16:04;;;;;;;58.85;41.22;;;20.40;99.90;;;;;;5050406;28;20037;-63
2022/08/26 02:18:33;;;;;;;53.92;40.92;;;20.40;99.90;;;;;;5050574;28;20122;-63
2022/08/26 02:20:59;;;;;;;61.03;40.55;;;20.50;99.90;;;;;;5044921;28;20076;-63
2022/08/26 02:23:25;;;;;;;57.92;38.35;;;20.40;99.90;;;;;;5049914;28;20079;-63
2022/08/26 02:26:07;;;;;;;51.95;39.58;;;20.50;99.90;;;;;;5050086;28;20578;-63
2022/08/26 02:28:54;;;;;;;52.97;36.55;;;20.50;99.90;;;;;;5049287;28;20068;-63
2022/08/26 02:31:19;;;;;;;60.03;38.85;;;20.50;99.90;;;;;;5049975;28;20132;-63
2022/08/26 02:33:45;;;;;;;56.67;39.28;;;20.50;99.90;;;;;;5049892;28;20124;-64
2022/08/26 02:36:11;;;;;;;53.47;36.90;;;20.50;99.90;;;;;;5050448;28;20480;-63
2022/08/26 02:38:36;;;;;;;53.15;38.85;;;20.40;99.90;;;;;;5045535;28;20040;-63
2022/08/26 02:41:02;;;;;;;51.88;36.30;;;20.40;99.90;;;;;;5044979;28;20044;-63
2022/08/26 02:43:28;;;;;;;53.15;38.08;;;20.40;99.90;;;;;;5050165;28;20469;-63
2022/08/26 02:45:54;;;;;;;51.35;37.25;;;20.40;99.90;;;;;;5052681;28;20140;-63
2022/08/26 02:48:20;;;;;;;49.83;33.08;;;20.50;99.90;;;;;;5061278;28;20048;-63
2022/08/26 02:50:47;;;;;;;51.33;35.22;;;20.40;99.90;;;;;;5049577;28;20527;-63
2022/08/26 02:53:13;;;;;;;52.08;36.45;;;20.40;99.90;;;;;;5050008;28;20819;-63
2022/08/26 02:55:40;;;;;;;50.58;35.45;;;20.40;99.90;;;;;;5046964;28;20037;-63
2022/08/26 02:58:07;;;;;;;50.20;36.67;;;20.50;99.90;;;;;;5055099;28;20554;-63
2022/08/26 03:00:36;;;;;;;45.47;28.38;;;20.50;99.90;;;;;;5048750;28;20040;-64
2022/08/26 03:03:03;;;;;;;51.50;35.83;;;20.40;99.90;;;;;;4994957;28;20056;-63
2022/08/26 03:05:29;;;;;;;56.10;37.08;;;20.40;99.90;;;;;;5053213;28;20036;-63
2022/08/26 03:07:55;;;;;;;54.22;35.15;;;20.40;99.90;;;;;;5049641;28;20264;-63
2022/08/26 03:10:21;;;;;;;48.30;35.20;;;20.40;99.90;;;;;;5050497;28;20505;-63
2022/08/26 03:12:47;;;;;;;46.83;34.75;;;20.40;99.90;;;;;;5035926;28;20033;-63
2022/08/26 03:15:15;;;;;;;50.55;35.25;;;20.40;99.90;;;;;;5049225;28;20039;-63
2022/08/26 03:17:41;;;;;;;51.30;33.85;;;20.40;99.90;;;;;;5040993;28;20125;-63
2022/08/26 03:20:08;;;;;;;53.97;34.00;;;20.40;99.90;;;;;;5030449;28;20619;-63
2022/08/26 03:22:34;;;;;;;48.15;33.47;;;20.40;99.90;;;;;;5040548;28;20051;-63
2022/08/26 03:25:02;;;;;;;45.25;32.95;;;20.40;99.90;;;;;;5049482;28;20055;-63
2022/08/26 03:27:27;;;;;;;44.95;31.70;;;20.30;99.90;;;;;;5047777;28;20445;-63
2022/08/26 03:32:38;;;;;;;43.08;32.38;;;20.30;99.90;;;;;;5048517;28;20128;-63
2022/08/26 03:35:04;;;;;;;42.38;31.38;;;20.30;99.90;;;;;;5049174;28;20112;-63
2022/08/26 03:37:29;;;;;;;42.75;31.73;;;20.30;99.90;;;;;;5048323;28;20052;-63
2022/08/26 03:39:55;;;;;;;45.85;30.38;;;20.30;99.90;;;;;;5048941;28;20036;-63
2022/08/26 03:42:21;;;;;;;45.95;28.65;;;20.30;99.90;;;;;;5049007;28;20037;-63
2022/08/26 03:44:47;;;;;;;45.60;30.08;;;20.30;99.90;;;;;;5048800;28;20073;-63
2022/08/26 03:47:12;;;;;;;43.10;28.30;;;20.30;99.90;;;;;;5061293;28;20482;-63
2022/08/26 03:49:38;;;;;;;41.78;29.55;;;20.30;99.90;;;;;;5049022;28;20056;-63
2022/08/26 03:52:04;;;;;;;45.47;28.48;;;20.30;99.90;;;;;;5049003;28;20043;-64
2022/08/26 03:54:30;;;;;;;42.35;27.52;;;20.30;99.90;;;;;;5039933;28;20033;-63
2022/08/26 03:56:55;;;;;;;39.55;29.13;;;20.30;99.90;;;;;;5047312;28;20702;-63
2022/08/26 03:59:21;;;;;;;39.42;28.15;;;20.30;99.90;;;;;;5048837;28;20037;-63
2022/08/26 04:01:47;;;;;;;44.95;29.48;;;20.30;99.90;;;;;;5039008;28;20045;-63
2022/08/26 04:04:12;;;;;;;45.67;29.80;;;20.20;99.90;;;;;;5048128;28;20069;-64
2022/08/26 04:06:43;;;;;;;39.17;26.90;;;20.20;99.90;;;;;;5048934;28;20084;-63
2022/08/26 04:09:16;;;;;;;44.40;29.63;;;20.30;99.90;;;;;;5049244;28;20033;-63
2022/08/26 04:11:43;;;;;;;41.42;27.88;;;20.20;99.90;;;;;;5045729;28;20035;-63
2022/08/26 04:14:13;;;;;;;45.65;29.80;;;20.20;99.90;;;;;;5048197;28;20566;-63
2022/08/26 04:16:39;;;;;;;42.80;29.10;;;20.20;99.90;;;;;;5048728;28;20055;-64
2022/08/26 04:19:05;;;;;;;47.33;31.58;;;20.20;99.90;;;;;;5054913;28;20032;-63
2022/08/26 04:21:31;;;;;;;46.85;29.73;;;20.20;99.90;;;;;;5059923;28;20076;-63
2022/08/26 04:23:56;;;;;;;43.85;28.00;;;20.20;99.90;;;;;;5046644;28;20069;-63
2022/08/26 04:26:23;;;;;;;41.83;25.15;;;20.20;99.90;;;;;;5048376;28;20037;-63
2022/08/26 04:28:50;;;;;;;43.10;28.13;;;20.20;99.90;;;;;;5048141;28;20033;-64
2022/08/26 04:31:17;;;;;;;43.95;29.08;;;20.20;99.90;;;;;;5050008;28;20029;-64
2022/08/26 04:33:44;;;;;;;44.03;27.00;;;20.30;99.90;;;;;;5033176;28;20052;-63
2022/08/26 04:36:10;;;;;;;43.42;27.02;;;20.30;99.90;;;;;;5042502;28;20041;-63
2022/08/26 04:38:36;;;;;;;37.65;25.05;;;20.30;99.90;;;;;;5048392;28;20040;-63
2022/08/26 04:41:03;;;;;;;36.70;27.35;;;20.30;99.90;;;;;;5047882;28;20523;-63
2022/08/26 04:43:30;;;;;;;37.83;26.63;;;20.30;99.90;;;;;;5048039;28;20063;-63
2022/08/26 04:45:59;;;;;;;39.38;25.08;;;20.40;99.90;;;;;;5054046;28;20079;-63
2022/08/26 04:48:27;;;;;;;44.33;26.08;;;20.40;99.90;;;;;;5048186;28;20069;-64
2022/08/26 04:50:53;;;;;;;40.72;26.63;;;20.40;99.90;;;;;;5044634;28;20080;-63
2022/08/26 04:53:18;;;;;;;42.70;25.88;;;20.40;99.90;;;;;;5047994;28;20398;-64
2022/08/26 04:55:44;;;;;;;39.92;26.00;;;20.40;99.90;;;;;;5047773;28;20033;-63
2022/08/26 04:58:13;;;;;;;36.78;25.30;;;20.40;99.90;;;;;;5048253;28;20119;-64
2022/08/26 05:00:39;;;;;;;37.08;24.58;;;20.40;99.90;;;;;;5039226;28;20041;-63
2022/08/26 05:03:05;;;;;;;36.38;25.75;;;20.50;99.90;;;;;;5034475;28;20120;-63
2022/08/26 05:05:31;;;;;;;39.65;23.58;;;20.50;99.90;;;;;;5044516;28;20059;-64
2022/08/26 05:07:56;;;;;;;38.13;25.40;;;20.50;99.90;;;;;;5052335;28;20041;-64
2022/08/26 05:10:22;;;;;;;37.05;24.33;;;20.50;99.90;;;;;;5049846;28;20025;-64
2022/08/26 05:12:48;;;;;;;36.22;23.25;;;20.50;99.90;;;;;;5053163;28;20764;-64
2022/08/26 05:15:14;;;;;;;35.72;23.58;;;20.50;99.90;;;;;;5045319;28;20033;-63
2022/08/26 05:17:39;;;;;;;34.92;22.85;;;20.60;99.90;;;;;;5042021;28;20045;-64
2022/08/26 05:20:05;;;;;;;34.92;24.17;;;20.60;99.90;;;;;;5044337;28;20064;-64
2022/08/26 05:22:31;;;;;;;32.80;22.25;;;20.60;99.90;;;;;;5048833;28;20033;-64
2022/08/26 05:24:57;;;;;;;35.40;24.25;;;20.60;99.90;;;;;;5043410;28;20074;-63
2022/08/26 05:27:22;;;;;;;34.75;25.52;;;20.60;99.90;;;;;;5048195;28;20620;-63
2022/08/26 05:29:48;;;;;;;39.20;25.25;;;20.60;99.90;;;;;;5048773;28;20064;-63
2022/08/26 05:32:14;;;;;;;39.22;24.63;;;20.70;99.90;;;;;;5048268;28;20495;-63
2022/08/26 05:34:39;;;;;;;32.97;23.67;;;20.70;99.90;;;;;;5053995;28;20075;-63
2022/08/26 05:37:05;;;;;;;37.17;23.80;;;20.70;99.90;;;;;;5048498;28;20048;-64
2022/08/26 05:39:32;;;;;;;33.47;22.98;;;20.70;99.90;;;;;;5048659;28;20093;-64
2022/08/26 05:41:58;;;;;;;30.85;22.30;;;20.80;99.90;;;;;;5044192;28;20040;-63
2022/08/26 05:44:23;;;;;;;34.67;22.65;;;20.80;99.90;;;;;;5049098;28;20036;-64
2022/08/26 05:46:50;;;;;;;35.50;23.50;;;20.90;99.90;;;;;;5048536;28;20052;-64
2022/08/26 05:49:16;;;;;;;37.00;22.67;;;20.90;99.90;;;;;;5048545;28;20041;-63
2022/08/26 05:51:45;;;;;;;34.40;22.27;;;20.90;99.90;;;;;;5052607;28;20044;-64
2022/08/26 05:54:11;;;;;;;29.35;21.73;;;20.90;99.90;;;;;;5049072;28;20041;-63
2022/08/26 05:56:38;;;;;;;33.03;23.85;;;21.00;99.90;;;;;;5048077;28;20033;-64
2022/08/26 05:59:04;;;;;;;33.22;22.75;;;21.00;99.90;;;;;;5043407;28;20056;-64
2022/08/26 06:01:30;;;;;;;32.83;22.77;;;21.00;99.90;;;;;;5043830;28;20053;-64
2022/08/26 06:03:58;;;;;;;32.60;21.67;;;21.00;99.90;;;;;;5047914;28;20048;-63
2022/08/26 06:06:28;;;;;;;34.47;21.73;;;21.00;99.90;;;;;;5048302;28;20557;-64
2022/08/26 06:08:57;;;;;;;33.35;20.10;;;21.00;99.90;;;;;;5039622;28;20659;-63
2022/08/26 06:11:25;;;;;;;31.85;19.35;;;21.00;99.90;;;;;;5041776;28;20519;-63
2022/08/26 06:13:52;;;;;;;31.20;19.77;;;20.90;99.90;;;;;;5046338;28;20150;-63
2022/08/26 06:16:21;;;;;;;23.42;18.27;;;21.00;99.90;;;;;;5045856;28;20093;-63
2022/08/26 06:18:49;;;;;;;23.35;17.45;;;21.00;99.90;;;;;;5048008;28;20040;-63
2022/08/26 06:21:17;;;;;;;26.67;19.20;;;21.10;99.90;;;;;;5046867;28;20040;-63
2022/08/26 06:26:31;;;;;;;23.13;16.20;;;21.20;99.90;;;;;;5050404;28;20481;-64
2022/08/26 06:28:57;;;;;;;23.25;15.82;;;21.20;99.90;;;;;;5050661;28;20045;-63
2022/08/26 06:31:24;;;;;;;22.25;15.70;;;21.20;99.90;;;;;;5045901;28;20530;-64
2022/08/26 06:33:50;;;;;;;27.20;14.70;;;21.20;99.90;;;;;;5043220;28;20045;-64
2022/08/26 06:36:22;;;;;;;20.85;13.73;;;21.10;99.90;;;;;;5045749;28;20040;-64
2022/08/26 06:38:49;;;;;;;26.42;13.82;;;21.10;99.90;;;;;;5047287;28;20052;-64
2022/08/26 06:41:16;;;;;;;22.33;13.70;;;21.20;99.90;;;;;;5047430;28;20045;-64
2022/08/26 06:43:42;;;;;;;20.02;12.90;;;21.30;99.90;;;;;;5047950;28;20163;-64
2022/08/26 06:46:11;;;;;;;17.90;12.35;;;21.40;99.90;;;;;;5049859;28;20490;-64
2022/08/26 06:48:38;;;;;;;24.35;12.95;;;21.50;99.90;;;;;;5040984;28;20765;-64
2022/08/26 06:51:10;;;;;;;20.42;12.15;;;21.50;99.90;;;;;;5046356;28;20049;-64
2022/08/26 06:53:37;;;;;;;21.98;11.52;;;21.50;99.90;;;;;;5047347;28;20072;-64
2022/08/26 06:56:05;;;;;;;27.75;12.57;;;21.60;99.90;;;;;;5047456;28;20037;-70
2022/08/26 06:58:32;;;;;;;20.67;11.80;;;21.70;99.90;;;;;;5033742;28;20041;-65
2022/08/26 07:00:58;;;;;;;20.23;12.05;;;21.70;99.90;;;;;;5044853;28;20055;-65
2022/08/26 07:03:23;;;;;;;20.13;12.35;;;21.60;99.90;;;;;;5049568;28;20044;-65
2022/08/26 07:05:49;;;;;;;20.08;11.90;;;21.60;99.90;;;;;;5050109;28;20042;-65
2022/08/26 07:08:15;;;;;;;23.40;11.73;;;21.60;99.90;;;;;;5048855;28;20037;-65
2022/08/26 07:10:41;;;;;;;23.15;12.70;;;21.60;99.90;;;;;;5047924;28;20028;-64
2022/08/26 07:13:08;;;;;;;20.83;11.77;;;21.50;99.90;;;;;;5049626;28;20082;-65
2022/08/26 07:15:34;;;;;;;21.92;11.93;;;21.50;99.90;;;;;;5049096;28;20083;-65
2022/08/26 07:18:01;;;;;;;19.90;10.93;;;21.50;99.90;;;;;;5050889;28;20114;-65
2022/08/26 07:20:27;;;;;;;21.70;10.27;;;21.60;99.90;;;;;;5057701;28;20052;-65
2022/08/26 07:22:53;;;;;;;22.50;10.40;;;21.60;99.90;;;;;;5044507;28;20065;-65
2022/08/26 07:25:19;;;;;;;24.92;10.68;;;21.60;99.90;;;;;;5049384;28;20460;-64
2022/08/26 07:27:45;;;;;;;23.48;10.15;;;21.70;99.90;;;;;;5049013;28;20055;-65
2022/08/26 07:30:11;;;;;;;20.88;11.30;;;21.80;99.90;;;;;;5041884;28;20495;-65
2022/08/26 07:32:36;;;;;;;18.80;9.32;;;21.90;99.90;;;;;;5048628;28;20029;-65
2022/08/26 07:35:04;;;;;;;16.05;8.90;;;21.90;99.90;;;;;;5046767;28;20030;-66
2022/08/26 07:37:30;;;;;;;23.75;9.55;;;22.00;99.90;;;;;;5053182;28;20395;-65
2022/08/26 07:39:55;;;;;;;20.90;8.60;;;22.00;99.90;;;;;;5040465;28;20037;-66
2022/08/26 07:42:21;;;;;;;15.77;8.45;;;22.00;99.90;;;;;;5048567;28;20029;-67
2022/08/26 07:44:47;;;;;;;18.13;8.20;;;22.00;99.90;;;;;;5054957;28;20466;-67
2022/08/26 07:47:13;;;;;;;16.55;7.45;;;22.00;99.90;;;;;;5047638;28;20048;-66
2022/08/26 07:49:39;;;;;;;16.73;8.68;;;22.00;99.90;;;;;;5048625;28;20395;-65
2022/08/26 07:52:06;;;;;;;16.42;8.65;;;21.90;99.90;;;;;;5041305;28;20041;-65
2022/08/26 07:54:32;;;;;;;11.73;7.65;;;22.00;99.90;;;;;;5042994;28;20035;-65
2022/08/26 07:56:58;;;;;;;16.70;8.27;;;22.00;99.90;;;;;;5046009;28;20033;-66
2022/08/26 07:59:24;;;;;;;18.05;8.80;;;22.10;99.90;;;;;;5048231;28;20052;-65
2022/08/26 08:01:50;;;;;;;14.98;8.35;;;22.20;99.90;;;;;;5048735;28;20090;-66
2022/08/26 08:04:17;;;;;;;15.40;8.48;;;22.20;99.90;;;;;;5034077;28;20411;-66
2022/08/26 08:06:44;;;;;;;15.10;8.18;;;22.20;99.90;;;;;;5048776;28;20029;-66
2022/08/26 08:09:11;;;;;;;16.38;7.85;;;22.20;99.90;;;;;;5048399;28;20112;-66
2022/08/26 08:11:36;;;;;;;16.05;8.23;;;22.20;99.90;;;;;;5046701;28;20392;-66
2022/08/26 08:14:03;;;;;;;18.83;8.27;;;22.20;99.90;;;;;;5061150;28;20119;-66
2022/08/26 08:16:29;;;;;;;13.75;7.72;;;22.20;99.90;;;;;;5050170;28;20042;-66
2022/08/26 08:18:55;;;;;;;14.60;7.30;;;22.30;99.90;;;;;;5050348;28;20037;-66
2022/08/26 08:21:22;;;;;;;15.57;7.25;;;22.30;99.90;;;;;;5047679;28;20095;-67
2022/08/26 08:23:48;;;;;;;15.10;7.03;;;22.30;99.90;;;;;;5030179;28;20073;-66
2022/08/26 08:26:14;;;;;;;17.77;7.00;;;22.20;99.90;;;;;;5048055;28;20101;-67
2022/08/26 08:28:40;;;;;;;18.30;6.68;;;22.20;99.90;;;;;;5039392;28;20047;-66
2022/08/26 08:31:05;;;;;;;16.55;6.10;;;22.20;99.90;;;;;;5039860;28;20032;-66
2022/08/26 08:33:32;;;;;;;16.80;6.28;;;22.10;99.90;;;;;;5046368;28;20828;-66
2022/08/26 08:35:58;;;;;;;13.73;5.85;;;22.10;99.90;;;;;;5043195;28;20078;-66
2022/08/26 08:38:25;;;;;;;15.15;6.90;;;22.10;99.90;;;;;;5046030;28;20072;-66
2022/08/26 08:40:51;;;;;;;19.98;6.25;;;22.10;99.90;;;;;;5045848;28;20057;-66
2022/08/26 08:43:32;;;;;;;15.98;6.80;;;22.10;99.90;;;;;;5037778;28;20049;-66
2022/08/26 08:46:04;;;;;;;13.68;6.40;;;22.10;99.90;;;;;;5027724;28;20045;-66
2022/08/26 08:48:34;;;;;;;11.88;6.30;;;22.10;99.90;;;;;;5048400;28;20032;-66
2022/08/26 08:51:17;;;;;;;13.33;6.30;;;22.10;99.90;;;;;;5049534;28;20513;-66
2022/08/26 08:53:45;;;;;;;15.23;6.15;;;22.00;99.90;;;;;;5048101;28;20037;-66
2022/08/26 08:56:22;;;;;;;18.08;6.55;;;22.10;99.90;;;;;;5048199;28;20048;-66
2022/08/26 08:59:06;;;;;;;17.70;5.97;;;22.10;99.90;;;;;;5050002;28;20091;-66
2022/08/26 09:01:56;;;;;;;12.65;5.63;;;22.10;99.90;;;;;;5051197;28;20094;-66
2022/08/26 09:04:43;;;;;;;18.75;5.72;;;22.20;99.90;;;;;;5040876;28;20037;-66
2022/08/26 09:07:31;;;;;;;18.23;5.45;;;22.20;99.90;;;;;;5051331;28;20032;-66
2022/08/26 09:10:00;;;;;;;10.55;5.07;;;22.30;99.90;;;;;;5044526;28;20087;-66
2022/08/26 09:12:29;;;;;;;11.77;4.57;;;22.20;99.90;;;;;;5050452;28;20037;-66
2022/08/26 09:15:22;;;;;;;15.13;4.70;;;22.30;99.90;;;;;;5053033;28;20033;-66
2022/08/26 09:18:23;;;;;;;10.73;4.05;;;22.50;99.90;;;;;;5048975;28;20090;-67
2022/08/26 09:21:02;;;;;;;11.88;3.92;;;22.50;99.90;;;;;;5021001;28;20056;-67
2022/08/26 09:23:29;;;;;;;10.50;4.13;;;22.40;99.90;;;;;;5053240;28;20128;-67
2022/08/26 09:25:59;;;;;;;14.00;3.65;;;22.40;99.90;;;;;;5053606;28;20036;-66
2022/08/26 09:28:26;;;;;;;10.68;3.70;;;22.30;99.90;;;;;;5050473;28;20487;-67
2022/08/26 09:31:33;;;;;;;12.60;4.15;;;22.30;99.90;;;;;;5048530;28;20033;-66
2022/08/26 09:34:05;;;;;;;9.65;3.33;;;22.30;99.90;;;;;;5032508;28;20049;-66
2022/08/26 09:36:36;;;;;;;10.15;3.47;;;22.30;99.90;;;;;;5044120;28;20068;-67
2022/08/26 09:39:03;;;;;;;12.48;3.53;;;22.30;99.90;;;;;;5052109;28;20128;-66
2022/08/26 09:41:32;;;;;;;10.63;2.83;;;22.40;99.90;;;;;;5052402;28;20086;-66
2022/08/26 09:44:08;;;;;;;13.68;3.45;;;22.40;99.90;;;;;;5045425;28;20047;-66
2022/08/26 09:46:35;;;;;;;10.02;2.85;;;22.40;99.90;;;;;;5052678;28;20047;-67
2022/08/26 09:49:25;;;;;;;10.55;2.97;;;22.30;99.90;;;;;;5052622;28;20068;-67
2022/08/26 09:52:13;;;;;;;10.93;2.57;;;22.20;99.90;;;;;;5046690;28;20053;-66
2022/08/26 09:54:40;;;;;;;5.43;2.30;;;22.20;99.90;;;;;;5049513;28;20279;-66
2022/08/26 09:57:17;;;;;;;8.45;2.50;;;22.10;99.90;;;;;;5052671;28;20041;-66
2022/08/26 09:59:43;;;;;;;10.32;2.85;;;22.20;99.90;;;;;;5051072;28;20044;-67
2022/08/26 10:02:35;;;;;;;6.53;2.30;;;22.20;99.90;;;;;;5051631;28;20514;-67
2022/08/26 10:05:08;;;;;;;8.57;2.97;;;22.20;99.90;;;;;;5052944;28;20041;-67
2022/08/26 10:07:49;;;;;;;8.20;2.53;;;22.10;99.90;;;;;;5049704;28;20037;-66
2022/08/26 10:10:25;;;;;;;7.07;2.50;;;22.10;99.90;;;;;;5049700;28;20037;-66
2022/08/26 10:12:56;;;;;;;10.73;2.50;;;22.10;99.90;;;;;;5047760;28;20033;-67
2022/08/26 10:15:24;;;;;;;9.93;2.33;;;22.00;99.90;;;;;;5032836;28;20108;-66
2022/08/26 10:17:59;;;;;;;10.98;2.97;;;22.00;99.90;;;;;;5042456;28;20052;-66
2022/08/26 10:20:27;;;;;;;6.93;2.88;;;21.90;99.90;;;;;;5051310;28;20570;-67
2022/08/26 10:23:01;;;;;;;10.82;2.70;;;21.90;99.90;;;;;;5051486;28;20499;-67
2022/08/26 10:25:54;;;;;;;7.53;2.55;;;21.90;99.90;;;;;;5034983;28;20072;-67
2022/08/26 10:28:35;;;;;;;5.93;2.42;;;22.00;99.90;;;;;;5026131;28;20518;-67
2022/08/26 10:31:27;;;;;;;9.02;2.78;;;22.10;99.90;;;;;;5049991;28;20068;-66
2022/08/26 10:33:54;;;;;;;9.32;2.28;;;22.00;99.90;;;;;;5049724;28;20044;-66
2022/08/26 10:39:28;;;;;;;9.18;2.33;;;22.10;99.90;;;;;;5048864;28;20049;-69
2022/08/26 10:42:01;;;;;;;8.95;2.60;;;22.20;99.90;;;;;;5045261;28;20870;-67
2022/08/26 10:44:31;;;;;;;7.95;2.72;;;22.20;99.90;;;;;;5051364;28;20082;-67
2022/08/26 10:47:04;;;;;;;9.30;2.90;;;22.30;99.90;;;;;;5051645;28;20047;-67
2022/08/26 10:49:30;;;;;;;7.22;2.83;;;22.30;99.90;;;;;;5052009;28;20287;-67
2022/08/26 10:52:12;;;;;;;11.25;2.88;;;22.30;99.90;;;;;;5049003;28;20040;-67
2022/08/26 10:54:58;;;;;;;11.10;3.00;;;22.40;99.90;;;;;;5045662;28;20033;-67
2022/08/26 10:57:37;;;;;;;6.85;3.13;;;22.50;99.90;;;;;;5048665;28;20037;-67
2022/08/26 11:03:27;;;;;;;9.82;2.63;;;22.80;99.90;;;;;;5050829;28;20041;-67
2022/08/26 11:06:32;;;;;;;11.52;2.88;;;22.90;99.90;;;;;;5038599;28;20079;-66
2022/08/26 11:09:00;;;;;;;10.57;2.50;;;23.00;99.90;;;;;;4950529;29;20506;-66
2022/08/26 11:11:41;;;;;;;8.57;2.70;;;22.90;99.90;;;;;;4955882;28;20034;-68
2022/08/26 11:14:17;;;;;;;9.38;3.00;;;22.80;99.90;;;;;;5022147;28;20060;-66
2022/08/26 11:16:55;;;;;;;12.30;3.05;;;22.80;99.90;;;;;;5049123;28;20048;-67
2022/08/26 11:19:37;;;;;;;8.57;3.10;;;22.60;99.90;;;;;;5046453;28;20040;-67
2022/08/26 11:22:27;;;;;;;10.95;2.90;;;22.60;99.90;;;;;;5047278;28;20037;-67
2022/08/26 11:24:56;;;;;;;10.77;2.83;;;22.60;99.90;;;;;;5039020;28;20097;-67
2022/08/26 11:27:27;;;;;;;11.18;3.03;;;22.80;99.90;;;;;;5051711;28;20045;-67
2022/08/26 11:30:07;;;;;;;9.43;2.92;;;22.90;99.90;;;;;;5054291;28;20573;-67
2022/08/26 11:32:32;;;;;;;12.57;2.70;;;22.90;99.90;;;;;;5031627;28;20044;-67
2022/08/26 11:35:10;;;;;;;8.52;2.85;;;22.90;99.90;;;;;;5050240;28;20094;-67
2022/08/26 11:37:38;;;;;;;7.75;2.65;;;22.80;99.90;;;;;;5050779;28;20087;-67
2022/08/26 11:40:15;;;;;;;14.70;3.22;;;22.70;99.90;;;;;;5050846;28;20095;-67
2022/08/26 11:42:47;;;;;;;9.15;2.92;;;22.70;99.90;;;;;;5047865;28;20037;-67
2022/08/26 11:45:14;;;;;;;8.30;3.05;;;22.70;99.90;;;;;;5050409;28;20123;-67
2022/08/26 11:47:39;;;;;;;8.30;3.30;;;22.60;99.90;;;;;;5050447;28;20047;-67
2022/08/26 11:50:11;;;;;;;9.07;3.22;;;22.50;99.90;;;;;;5047650;28;20037;-66
2022/08/26 11:52:37;;;;;;;9.65;2.67;;;22.50;99.90;;;;;;5046747;28;20039;-67
2022/08/26 11:55:06;;;;;;;12.05;3.40;;;22.50;99.90;;;;;;5043542;28;20029;-67
2022/08/26 11:57:34;;;;;;;8.43;2.45;;;22.40;99.90;;;;;;5047122;28;20614;-66
2022/08/26 12:00:01;;;;;;;8.65;2.35;;;22.40;99.90;;;;;;5049169;28;20120;-66
2022/08/26 12:02:27;;;;;;;7.85;2.42;;;22.20;99.90;;;;;;5050379;28;20041;-67
2022/08/26 12:04:54;;;;;;;7.82;2.50;;;22.20;99.90;;;;;;5047535;28;20055;-65
2022/08/26 12:07:26;;;;;;;7.18;2.40;;;22.20;99.90;;;;;;5046258;28;20573;-66
2022/08/26 12:10:01;;;;;;;7.85;2.83;;;22.20;99.90;;;;;;5050307;28;20075;-65
2022/08/26 12:12:33;;;;;;;13.35;3.10;;;22.20;99.90;;;;;;5039945;28;20037;-66
2022/08/26 12:15:07;;;;;;;8.63;2.50;;;22.20;99.90;;;;;;5050152;28;20124;-66
2022/08/26 12:17:32;;;;;;;15.95;3.25;;;22.20;99.90;;;;;;5050078;28;20037;-66
2022/08/26 12:19:58;;;;;;;12.35;3.17;;;22.10;99.90;;;;;;5047744;28;20167;-66
2022/08/26 12:22:34;;;;;;;7.85;2.50;;;22.00;99.90;;;;;;5049959;28;20039;-66
2022/08/26 12:25:07;;;;;;;8.77;2.85;;;22.10;99.90;;;;;;5047625;28;20486;-66
2022/08/26 12:27:43;;;;;;;9.70;3.20;;;22.10;99.90;;;;;;5049898;28;20037;-67
2022/08/26 12:30:14;;;;;;;10.55;2.97;;;21.90;99.90;;;;;;5049875;28;20037;-66
2022/08/26 12:33:19;;;;;;;11.27;3.10;;;21.80;99.90;;;;;;5050152;28;20068;-66
2022/08/26 12:35:45;;;;;;;11.00;2.75;;;21.50;99.90;;;;;;5047389;28;20449;-66
2022/08/26 12:38:11;;;;;;;10.43;2.70;;;21.50;99.90;;;;;;5053831;28;20044;-65
2022/08/26 12:40:42;;;;;;;11.40;3.10;;;21.40;99.90;;;;;;5051721;28;20036;-65
2022/08/26 12:43:08;;;;;;;9.02;2.80;;;21.40;99.90;;;;;;5053309;28;20036;-66
2022/08/26 12:45:42;;;;;;;8.77;2.85;;;21.40;99.90;;;;;;5054304;28;20052;-66
2022/08/26 12:48:24;;;;;;;11.07;3.22;;;21.40;99.90;;;;;;5053997;28;20521;-66
2022/08/26 12:50:50;;;;;;;12.38;2.95;;;21.30;99.90;;;;;;5031157;28;20120;-65
2022/08/26 12:53:24;;;;;;;8.98;2.85;;;21.30;99.90;;;;;;5053878;28;20040;-65
2022/08/26 12:55:55;;;;;;;10.30;2.92;;;21.30;99.90;;;;;;5051470;28;20033;-65
2022/08/26 12:58:38;;;;;;;7.70;2.58;;;21.40;99.90;;;;;;5050420;28;20662;-64